Time;durP1;ratioP1;P1;durP2;ratioP2;P2;SDS_P1;SDS_P2;PMS_P1;PMS_P2;Temp;Humidity;BMP_temperature;BMP_pressure;BME280_temperature;BME280_humidity;BME280_pressure;Samples;Min_cycle;Max_cycle;Signal;HPM_P1;HPM_P2
2023/05/14 00:02:12;;;;;;;;;;;;;;;23.03;53.85;99780.25;7318234;19;129692;-65
2023/05/14 00:04:37;;;;;;;;;;;;;;;23.05;53.52;99787.97;7316466;19;129062;-64
2023/05/14 00:07:03;;;;;;;;;;;;;;;23.04;53.20;99781.88;7315633;19;129117;-64
2023/05/14 00:09:29;;;;;;;;;;;;;;;23.05;53.35;99770.44;7310288;19;130707;-66
2023/05/14 00:11:54;;;;;;;;;;;;;;;23.07;53.49;99776.34;7315292;19;130974;-66
2023/05/14 00:14:20;;;;;;;;;;;;;;;23.06;53.79;99784.34;7315373;19;130131;-66
2023/05/14 00:16:45;;;;;;;;;;;;;;;23.06;53.94;99776.50;7317153;19;129126;-66
2023/05/14 00:19:10;;;;;;;;;;;;;;;23.05;53.81;99772.22;7314102;19;129180;-64
2023/05/14 00:21:35;;;;;;;;;;;;;;;23.05;53.58;99767.81;7312618;19;133625;-64
2023/05/14 00:24:00;;;;;;;;;;;;;;;23.07;53.82;99767.69;7318086;19;129063;-64
2023/05/14 00:26:26;;;;;;;;;;;;;;;23.04;53.49;99760.06;7312299;19;129681;-66
2023/05/14 00:28:51;;;;;;;;;;;;;;;23.06;53.90;99758.13;7317715;19;131702;-65
2023/05/14 00:31:16;;;;;;;;;;;;;;;23.05;53.78;99751.25;7312134;19;130143;-64
2023/05/14 00:33:41;;;;;;;;;;;;;;;23.05;53.54;99753.88;7314370;19;129262;-65
2023/05/14 00:36:07;;;;;;;;;;;;;;;23.04;53.65;99754.81;7317210;19;130193;-65
2023/05/14 00:38:32;;;;;;;;;;;;;;;23.01;53.61;99749.88;7316362;19;129703;-65
2023/05/14 00:40:57;;;;;;;;;;;;;;;23.03;53.95;99745.31;7311768;19;129561;-65
2023/05/14 00:43:24;;;;;;;;;;;;;;;23.05;53.54;99746.00;7317030;19;129091;-65
2023/05/14 00:45:49;;;;;;;;;;;;;;;23.01;53.89;99739.38;7314055;19;129176;-64
2023/05/14 00:48:15;;;;;;;;;;;;;;;23.04;53.67;99745.16;7313741;19;130245;-64
2023/05/14 00:50:41;;;;;;;;;;;;;;;23.05;53.67;99740.75;7314363;19;130292;-64
2023/05/14 00:53:09;;;;;;;;;;;;;;;22.94;53.15;99712.13;7316015;19;129776;-64
2023/05/14 00:55:35;;;;;;;;;;;;;;;23.04;53.59;99731.22;7312288;19;129753;-66
2023/05/14 00:58:01;;;;;;;;;;;;;;;23.04;53.48;99734.69;7312229;19;133220;-66
2023/05/14 01:00:27;;;;;;;;;;;;;;;22.94;53.27;99720.78;7310921;19;131274;-66
2023/05/14 01:02:52;;;;;;;;;;;;;;;23.05;53.22;99743.38;7315013;19;129425;-66
2023/05/14 01:05:17;;;;;;;;;;;;;;;22.98;53.24;99723.94;7314448;19;128984;-66
2023/05/14 01:07:42;;;;;;;;;;;;;;;23.01;53.51;99728.91;7311527;19;129407;-66
2023/05/14 01:10:14;;;;;;;;;;;;;;;23.04;53.97;99720.75;7313842;19;129531;-65
2023/05/14 01:12:50;;;;;;;;;;;;;;;23.01;53.37;99723.66;7310264;19;129287;-65
2023/05/14 01:15:20;;;;;;;;;;;;;;;23.01;53.92;99721.88;7313618;19;128909;-66
2023/05/14 01:17:49;;;;;;;;;;;;;;;23.02;53.44;99723.50;7309764;19;130372;-66
2023/05/14 01:20:14;;;;;;;;;;;;;;;23.02;53.21;99725.31;7314682;19;132537;-65
2023/05/14 01:22:40;;;;;;;;;;;;;;;23.02;54.06;99725.31;7316496;19;130575;-65
2023/05/14 01:25:05;;;;;;;;;;;;;;;23.03;53.79;99742.69;7313863;19;128956;-65
2023/05/14 01:27:36;;;;;;;;;;;;;;;23.04;53.92;99733.84;7310293;19;129888;-64
2023/05/14 01:30:06;;;;;;;;;;;;;;;23.03;53.64;99732.22;7315473;19;129362;-65
2023/05/14 01:32:32;;;;;;;;;;;;;;;23.01;53.99;99727.13;7312171;19;129840;-66
2023/05/14 01:34:59;;;;;;;;;;;;;;;23.05;53.42;99725.03;7314001;19;129398;-67
2023/05/14 01:37:26;;;;;;;;;;;;;;;23.02;53.96;99725.31;7312433;19;131848;-67
2023/05/14 01:39:52;;;;;;;;;;;;;;;23.02;54.04;99726.13;7314250;19;129803;-67
2023/05/14 01:44:45;;;;;;;;;;;;;;;22.92;53.69;99693.88;7313258;19;129104;-40
2023/05/14 01:47:10;;;;;;;;;;;;;;;23.02;53.62;99712.22;7307725;19;129898;-39
2023/05/14 01:49:36;;;;;;;;;;;;;;;23.02;53.36;99720.88;7311788;19;129318;-39
2023/05/14 01:52:01;;;;;;;;;;;;;;;23.00;53.70;99712.38;7311017;19;129060;-40
2023/05/14 01:54:26;;;;;;;;;;;;;;;23.01;53.42;99713.16;7312820;19;128917;-37
2023/05/14 01:56:51;;;;;;;;;;;;;;;23.01;54.23;99718.41;7312526;19;129297;-40
2023/05/14 01:59:17;;;;;;;;;;;;;;;23.01;53.48;99721.03;7311467;19;129670;-39
2023/05/14 02:01:42;;;;;;;;;;;;;;;22.99;54.08;99726.44;7309634;19;129196;-39
2023/05/14 02:04:07;;;;;;;;;;;;;;;23.00;53.62;99722.84;7312905;19;129803;-40
2023/05/14 02:06:32;;;;;;;;;;;;;;;22.99;53.51;99715.94;7310998;19;131269;-42
2023/05/14 02:08:57;;;;;;;;;;;;;;;23.00;54.23;99716.78;7313081;19;130336;-40
2023/05/14 02:11:23;;;;;;;;;;;;;;;22.99;54.17;99721.19;7308863;19;129020;-40
2023/05/14 02:13:48;;;;;;;;;;;;;;;23.01;53.82;99718.41;7312070;19;129151;-38
2023/05/14 02:16:13;;;;;;;;;;;;;;;22.90;54.17;99695.84;7312458;19;130607;-39
2023/05/14 02:18:38;;;;;;;;;;;;;;;22.91;53.83;99696.66;7312681;19;129906;-38
2023/05/14 02:21:04;;;;;;;;;;;;;;;23.01;54.06;99714.00;7309030;19;129339;-39
2023/05/14 02:23:29;;;;;;;;;;;;;;;23.01;53.79;99719.25;7311252;19;128992;-40
2023/05/14 02:25:54;;;;;;;;;;;;;;;23.00;53.85;99717.59;7311092;19;128946;-40
2023/05/14 02:28:19;;;;;;;;;;;;;;;23.00;53.77;99717.59;7307462;19;129678;-39
2023/05/14 02:30:44;;;;;;;;;;;;;;;22.98;53.61;99716.09;7310482;19;130399;-40
2023/05/14 02:33:10;;;;;;;;;;;;;;;22.87;53.55;99695.31;7306790;19;129375;-39
2023/05/14 02:35:36;;;;;;;;;;;;;;;22.94;53.57;99702.44;7310668;19;129827;-39
2023/05/14 02:38:01;;;;;;;;;;;;;;;23.00;54.16;99716.78;7308909;19;129416;-39
2023/05/14 02:40:26;;;;;;;;;;;;;;;23.00;53.76;99714.97;7309885;19;129416;-38
2023/05/14 02:42:51;;;;;;;;;;;;;;;23.00;53.90;99711.53;7306724;19;129434;-40
2023/05/14 02:45:17;;;;;;;;;;;;;;;22.99;53.86;99710.69;7311288;19;130021;-39
2023/05/14 02:47:42;;;;;;;;;;;;;;;22.99;53.58;99712.50;7306180;19;129638;-38
2023/05/14 02:50:08;;;;;;;;;;;;;;;22.99;53.81;99709.88;7307523;19;129216;-38
2023/05/14 02:52:33;;;;;;;;;;;;;;;22.99;54.14;99713.31;7311304;19;129321;-39
2023/05/14 02:54:58;;;;;;;;;;;;;;;22.99;54.02;99707.28;7310502;19;129470;-40
2023/05/14 02:57:24;;;;;;;;;;;;;;;22.98;53.70;99709.06;7308135;19;129206;-38
2023/05/14 02:59:49;;;;;;;;;;;;;;;22.89;54.27;99680.28;7309701;19;129364;-40
2023/05/14 03:02:14;;;;;;;;;;;;;;;22.98;54.18;99702.97;7310957;19;128976;-40
2023/05/14 03:04:39;;;;;;;;;;;;;;;22.99;54.15;99702.81;7310435;19;130231;-39
2023/05/14 03:07:04;;;;;;;;;;;;;;;23.00;54.20;99709.75;7307694;19;129422;-39
2023/05/14 03:09:30;;;;;;;;;;;;;;;22.99;54.22;99709.88;7308817;19;128856;-38
2023/05/14 03:11:55;;;;;;;;;;;;;;;22.99;54.05;99705.44;7310588;19;129195;-39
2023/05/14 03:14:20;;;;;;;;;;;;;;;23.00;53.76;99703.66;7310225;19;129101;-39
2023/05/14 03:16:45;;;;;;;;;;;;;;;22.91;53.76;99691.41;7307674;19;130594;-40
2023/05/14 03:19:11;;;;;;;;;;;;;;;22.98;54.31;99702.97;7310140;19;131112;-38
2023/05/14 03:21:36;;;;;;;;;;;;;;;22.99;54.06;99705.44;7308237;19;130806;-39
2023/05/14 03:24:01;;;;;;;;;;;;;;;23.00;54.14;99703.66;7309411;19;129489;-41
2023/05/14 03:26:26;;;;;;;;;;;;;;;22.99;53.59;99709.88;7306764;19;129717;-38
2023/05/14 03:28:52;;;;;;;;;;;;;;;22.86;53.70;99684.00;7308300;19;129980;-40
2023/05/14 03:31:17;;;;;;;;;;;;;;;23.00;53.71;99706.28;7308507;19;128975;-39
2023/05/14 03:33:42;;;;;;;;;;;;;;;22.89;53.74;99688.13;7308747;19;129936;-38
2023/05/14 03:36:08;;;;;;;;;;;;;;;22.98;54.07;99698.56;7309070;19;129260;-40
2023/05/14 03:38:33;;;;;;;;;;;;;;;22.99;53.96;99696.78;7309768;19;129679;-39
2023/05/14 03:40:58;;;;;;;;;;;;;;;23.01;53.62;99692.19;7308125;19;128969;-38
2023/05/14 03:43:23;;;;;;;;;;;;;;;22.98;53.65;99687.25;7307503;19;129532;-39
2023/05/14 03:45:51;;;;;;;;;;;;;;;22.88;54.14;99671.56;7308275;19;130381;-39
2023/05/14 03:48:16;;;;;;;;;;;;;;;22.98;53.62;99687.25;7307687;19;129069;-40
2023/05/14 03:50:42;;;;;;;;;;;;;;;23.00;54.15;99685.31;7308564;19;129409;-39
2023/05/14 03:53:07;;;;;;;;;;;;;;;22.97;53.93;99680.38;7310144;19;129970;-39
2023/05/14 03:55:32;;;;;;;;;;;;;;;22.97;53.71;99681.16;7308145;19;129588;-42
2023/05/14 03:57:57;;;;;;;;;;;;;;;22.98;54.27;99684.63;7308932;19;129101;-38
2023/05/14 04:00:23;;;;;;;;;;;;;;;22.98;53.74;99687.25;7307689;19;130576;-39
2023/05/14 04:02:48;;;;;;;;;;;;;;;22.99;54.05;99683.66;7309031;19;129901;-38
2023/05/14 04:05:13;;;;;;;;;;;;;;;22.98;53.69;99674.13;7307168;19;129341;-40
2023/05/14 04:07:38;;;;;;;;;;;;;;;23.00;54.23;99674.81;7306596;19;129343;-40
2023/05/14 04:10:04;;;;;;;;;;;;;;;22.98;54.12;99679.38;7312085;19;129424;-40
2023/05/14 04:12:29;;;;;;;;;;;;;;;22.97;53.69;99675.91;7315358;19;129242;-39
2023/05/14 04:14:57;;;;;;;;;;;;;;;22.97;53.80;99675.13;7315575;19;129623;-37
2023/05/14 04:17:22;;;;;;;;;;;;;;;22.95;54.08;99666.56;7315580;19;130232;-39
2023/05/14 04:19:47;;;;;;;;;;;;;;;22.94;54.01;99665.72;7315534;19;129217;-40
2023/05/14 04:22:12;;;;;;;;;;;;;;;22.94;54.13;99670.16;7315114;19;129267;-40
2023/05/14 04:24:38;;;;;;;;;;;;;;;22.82;53.75;99655.59;7317141;19;129111;-40
2023/05/14 04:27:03;;;;;;;;;;;;;;;22.95;54.01;99669.19;7313223;19;129337;-38
2023/05/14 04:29:28;;;;;;;;;;;;;;;22.96;53.80;99668.19;7314536;19;129377;-39
2023/05/14 04:31:53;;;;;;;;;;;;;;;22.97;53.81;99668.06;7315821;19;129275;-38
2023/05/14 04:34:19;;;;;;;;;;;;;;;22.98;53.73;99663.66;7316339;19;129276;-40
2023/05/14 04:36:44;;;;;;;;;;;;;;;22.96;54.02;99662.97;7313867;19;129656;-39
2023/05/14 04:39:11;;;;;;;;;;;;;;;22.96;54.11;99665.59;7313997;19;129635;-38
2023/05/14 04:41:36;;;;;;;;;;;;;;;22.98;53.81;99664.47;7313137;19;130201;-41
2023/05/14 04:44:01;;;;;;;;;;;;;;;22.97;53.70;99664.63;7314813;19;129113;-38
2023/05/14 04:46:27;;;;;;;;;;;;;;;22.96;54.16;99663.78;7314069;19;129491;-38
2023/05/14 04:48:52;;;;;;;;;;;;;;;22.97;53.69;99664.63;7309840;19;129670;-40
2023/05/14 04:51:17;;;;;;;;;;;;;;;22.97;54.38;99664.63;7311756;19;130976;-40
2023/05/14 04:53:42;;;;;;;;;;;;;;;22.84;53.80;99645.81;7316008;19;129591;-37
2023/05/14 04:56:08;;;;;;;;;;;;;;;22.83;54.42;99641.50;7309470;19;129039;-38
2023/05/14 04:58:33;;;;;;;;;;;;;;;22.95;54.00;99662.16;7313541;19;130308;-40
2023/05/14 05:00:58;;;;;;;;;;;;;;;22.97;54.34;99659.38;7311509;19;130093;-39
2023/05/14 05:03:23;;;;;;;;;;;;;;;22.97;54.19;99659.38;7313412;19;129636;-40
2023/05/14 05:05:49;;;;;;;;;;;;;;;22.96;53.95;99658.56;7309700;19;130662;-39
2023/05/14 05:08:15;;;;;;;;;;;;;;;22.93;54.38;99656.22;7311184;19;129757;-39
2023/05/14 05:10:40;;;;;;;;;;;;;;;22.95;54.42;99658.69;7313602;19;129370;-38
2023/05/14 05:13:05;;;;;;;;;;;;;;;22.95;54.37;99658.69;7314523;19;130366;-39
2023/05/14 05:15:30;;;;;;;;;;;;;;;22.94;54.10;99662.31;7314108;19;129587;-39
2023/05/14 05:17:55;;;;;;;;;;;;;;;22.95;53.98;99650.84;7309065;19;129641;-41
2023/05/14 05:20:22;;;;;;;;;;;;;;;22.97;54.52;99659.38;7310424;19;130444;-39
2023/05/14 05:22:47;;;;;;;;;;;;;;;22.95;54.38;99650.84;7311915;19;129451;-39
2023/05/14 05:25:12;;;;;;;;;;;;;;;22.93;54.21;99643.13;7310701;19;129566;-41
2023/05/14 05:27:37;;;;;;;;;;;;;;;22.97;53.70;99648.91;7312347;19;129196;-40
2023/05/14 05:30:03;;;;;;;;;;;;;;;22.96;54.42;99647.22;7311677;19;130321;-40
2023/05/14 05:32:28;;;;;;;;;;;;;;;22.94;54.02;99646.56;7313543;19;129421;-40
2023/05/14 05:34:54;;;;;;;;;;;;;;;22.91;54.36;99639.81;7311131;19;129023;-39
2023/05/14 05:37:19;;;;;;;;;;;;;;;22.95;54.29;99643.81;7312508;19;129007;-40
2023/05/14 05:39:46;;;;;;;;;;;;;;;22.95;53.85;99641.19;7308566;19;130976;-37
2023/05/14 05:42:11;;;;;;;;;;;;;;;22.83;54.45;99625.78;7309597;19;129865;-39
2023/05/14 05:44:36;;;;;;;;;;;;;;;22.92;54.42;99635.41;7310918;19;129037;-40
2023/05/14 05:47:02;;;;;;;;;;;;;;;22.95;54.51;99640.34;7313188;19;129323;-39
2023/05/14 05:49:27;;;;;;;;;;;;;;;22.94;54.20;99638.72;7304326;19;129566;-40
2023/05/14 05:51:52;;;;;;;;;;;;;;;22.94;53.73;99636.88;7308722;19;130076;-39
2023/05/14 05:54:17;;;;;;;;;;;;;;;22.95;54.30;99640.34;7312563;19;129683;-40
2023/05/14 05:56:43;;;;;;;;;;;;;;;22.94;53.78;99636.09;7308251;19;129066;-39
2023/05/14 05:59:08;;;;;;;;;;;;;;;22.94;54.15;99638.72;7312318;19;129682;-39
2023/05/14 06:01:34;;;;;;;;;;;;;;;22.95;54.21;99635.09;7308942;19;130240;-39
2023/05/14 06:03:59;;;;;;;;;;;;;;;22.94;54.04;99634.28;7310295;19;129632;-39
2023/05/14 06:06:24;;;;;;;;;;;;;;;22.95;53.84;99635.09;7311265;19;128897;-38
2023/05/14 06:08:49;;;;;;;;;;;;;;;22.95;54.09;99635.94;7308973;19;129121;-40
2023/05/14 06:11:15;;;;;;;;;;;;;;;22.85;54.25;99622.06;7308574;19;129553;-39
2023/05/14 06:13:41;;;;;;;;;;;;;;;22.85;53.74;99623.84;7309481;19;129018;-38
2023/05/14 06:16:06;;;;;;;;;;;;;;;22.94;54.20;99638.72;7312361;19;129642;-39
2023/05/14 06:18:31;;;;;;;;;;;;;;;22.95;54.50;99635.94;7311984;19;129493;-39
2023/05/14 06:20:58;;;;;;;;;;;;;;;22.95;54.08;99630.69;7306839;19;129746;-39
2023/05/14 06:23:25;;;;;;;;;;;;;;;22.92;54.51;99627.53;7310268;19;129810;-39
2023/05/14 06:25:50;;;;;;;;;;;;;;;22.92;54.37;99624.91;7310539;19;129299;-39
2023/05/14 06:28:15;;;;;;;;;;;;;;;22.93;54.03;99623.94;7308887;19;130423;-39
2023/05/14 06:30:40;;;;;;;;;;;;;;;22.93;54.16;99621.31;7307561;19;131418;-40
2023/05/14 06:33:06;;;;;;;;;;;;;;;22.94;54.06;99626.41;7306819;19;129438;-40
2023/05/14 06:35:31;;;;;;;;;;;;;;;22.94;54.50;99630.84;7304965;19;130427;-40
2023/05/14 06:37:56;;;;;;;;;;;;;;;22.92;54.32;99619.66;7311651;19;129511;-40
2023/05/14 06:40:22;;;;;;;;;;;;;;;22.93;54.45;99622.16;7307335;19;129843;-40
2023/05/14 06:42:47;;;;;;;;;;;;;;;22.92;53.96;99622.28;7311215;19;129653;-40
2023/05/14 06:45:12;;;;;;;;;;;;;;;22.92;54.25;99624.91;7308403;19;129362;-40
2023/05/14 06:47:37;;;;;;;;;;;;;;;22.94;54.51;99617.72;7308987;19;129192;-39
2023/05/14 06:50:03;;;;;;;;;;;;;;;22.92;53.92;99623.09;7306127;19;129263;-40
2023/05/14 06:52:28;;;;;;;;;;;;;;;22.81;53.90;99609.38;7310120;19;129404;-39
2023/05/14 06:54:53;;;;;;;;;;;;;;;22.91;54.22;99624.09;7310363;19;129921;-41
2023/05/14 06:57:19;;;;;;;;;;;;;;;22.84;54.51;99606.47;7307760;19;130197;-38
2023/05/14 06:59:44;;;;;;;;;;;;;;;22.94;53.76;99612.50;7310305;19;129728;-40
2023/05/14 07:02:09;;;;;;;;;;;;;;;22.93;54.38;99610.81;7310266;19;129428;-40
2023/05/14 07:04:35;;;;;;;;;;;;;;;22.92;54.65;99614.44;7307427;19;129546;-39
2023/05/14 07:07:00;;;;;;;;;;;;;;;22.92;54.23;99603.94;7308130;19;129130;-40
2023/05/14 07:09:25;;;;;;;;;;;;;;;22.92;54.18;99609.19;7307360;19;130974;-40
2023/05/14 07:11:50;;;;;;;;;;;;;;;22.92;53.95;99603.94;7304888;19;129516;-39
2023/05/14 07:14:16;;;;;;;;;;;;;;;22.91;54.61;99602.28;7308668;19;131254;-38
2023/05/14 07:16:41;;;;;;;;;;;;;;;22.90;54.30;99598.00;7302598;19;129606;-39
2023/05/14 07:19:07;;;;;;;;;;;;;;;22.81;54.08;99575.28;7309779;19;130072;-38
2023/05/14 07:21:33;;;;;;;;;;;;;;;22.91;53.97;99594.41;7303267;19;129667;-40
2023/05/14 07:23:58;;;;;;;;;;;;;;;22.92;54.03;99603.94;7311221;19;129184;-39
2023/05/14 07:26:25;;;;;;;;;;;;;;;22.92;54.25;99590.84;7304116;19;129021;-39
2023/05/14 07:28:50;;;;;;;;;;;;;;;22.91;54.30;99587.38;7300693;19;129877;-39
2023/05/14 07:31:15;;;;;;;;;;;;;;;22.85;53.64;99584.53;7306327;19;129665;-38
2023/05/14 07:33:40;;;;;;;;;;;;;;;22.86;53.80;99588.78;7306742;19;129701;-39
2023/05/14 07:36:06;;;;;;;;;;;;;;;22.87;54.55;99585.22;7306531;19;129656;-41
2023/05/14 07:38:31;;;;;;;;;;;;;;;22.89;54.55;99594.56;7300818;19;130471;-40
2023/05/14 07:40:57;;;;;;;;;;;;;;;22.87;54.01;99590.44;7304588;19;129957;-38
2023/05/14 07:43:22;;;;;;;;;;;;;;;22.88;53.83;99589.47;7307312;19;129868;-37
2023/05/14 07:45:47;;;;;;;;;;;;;;;22.81;54.20;99560.41;7314708;19;130416;-39
2023/05/14 07:48:13;;;;;;;;;;;;;;;22.90;53.43;99583.13;7310066;19;130552;-38
2023/05/14 07:50:38;;;;;;;;;;;;;;;22.91;53.92;99586.53;7312728;19;129220;-40
2023/05/14 07:53:03;;;;;;;;;;;;;;;22.90;53.11;99579.66;7316075;19;129495;-40
2023/05/14 07:55:28;;;;;;;;;;;;;;;22.93;53.62;99574.13;7313186;19;129720;-38
2023/05/14 07:57:54;;;;;;;;;;;;;;;22.92;53.56;99577.72;7310778;19;129537;-39
2023/05/14 08:00:19;;;;;;;;;;;;;;;22.90;53.64;99575.25;7311340;19;129332;-39
2023/05/14 08:02:45;;;;;;;;;;;;;;;22.93;52.86;99576.75;7309777;19;129113;-38
2023/05/14 08:05:10;;;;;;;;;;;;;;;22.93;52.67;99574.13;7312017;19;129978;-40
2023/05/14 08:07:35;;;;;;;;;;;;;;;22.93;53.13;99574.94;7304785;19;131881;-39
2023/05/14 08:10:00;;;;;;;;;;;;;;;22.92;53.54;99581.16;7304658;19;129992;-41
2023/05/14 08:12:26;;;;;;;;;;;;;;;22.84;53.61;99564.53;7310888;19;129709;-40
2023/05/14 08:14:51;;;;;;;;;;;;;;;22.92;53.65;99577.72;7315279;19;131239;-40
2023/05/14 08:17:16;;;;;;;;;;;;;;;22.91;53.10;99583.91;7315237;19;130576;-40
2023/05/14 08:19:42;;;;;;;;;;;;;;;22.91;53.71;99584.75;7313342;19;129382;-38
2023/05/14 08:22:07;;;;;;;;;;;;;;;22.92;53.93;99577.72;7313039;19;130208;-41
2023/05/14 08:24:32;;;;;;;;;;;;;;;22.93;53.07;99576.75;7313431;19;129525;-40
2023/05/14 08:26:57;;;;;;;;;;;;;;;22.92;53.58;99575.09;7310312;19;129856;-39
2023/05/14 08:29:23;;;;;;;;;;;;;;;22.81;53.62;99556.94;7304665;19;130480;-40
2023/05/14 08:31:48;;;;;;;;;;;;;;;22.91;53.32;99570.81;7299999;19;130477;-38
2023/05/14 08:34:13;;;;;;;;;;;;;;;22.92;53.71;99565.41;7301534;19;130247;-39
2023/05/14 08:36:39;;;;;;;;;;;;;;;22.92;53.39;99564.63;7299912;19;131871;-39
2023/05/14 08:39:06;;;;;;;;;;;;;;;22.92;53.48;99562.00;7301349;19;130447;-40
2023/05/14 08:41:31;;;;;;;;;;;;;;;22.93;53.98;99558.38;7302910;19;131135;-41
2023/05/14 08:44:09;;;;;;;;;;;;;;;22.93;53.90;99568.88;7304241;19;131825;-40
2023/05/14 08:46:36;;;;;;;;;;;;;;;22.92;54.12;99572.47;7307384;19;129995;-40
2023/05/14 08:49:25;;;;;;;;;;;;;;;22.94;54.05;99570.53;7303801;19;130085;-39
2023/05/14 08:51:50;;;;;;;;;;;;;;;22.92;53.50;99565.41;7305432;19;130067;-39
2023/05/14 08:54:16;;;;;;;;;;;;;;;22.93;53.52;99568.88;7310439;19;129739;-40
2023/05/14 08:56:43;;;;;;;;;;;;;;;22.91;53.92;99549.84;7310479;19;131494;-39
2023/05/14 08:59:08;;;;;;;;;;;;;;;22.92;53.99;99559.38;7314311;19;128828;-40
2023/05/14 09:01:34;;;;;;;;;;;;;;;22.90;54.24;99549.03;7308374;19;129159;-39
2023/05/14 09:04:05;;;;;;;;;;;;;;;22.90;53.83;99569.19;7312946;19;130885;-38
2023/05/14 09:06:31;;;;;;;;;;;;;;;22.89;53.93;99557.84;7311453;19;129405;-40
2023/05/14 09:08:57;;;;;;;;;;;;;;;22.91;53.97;99558.53;7303141;19;129853;-40
2023/05/14 09:11:23;;;;;;;;;;;;;;;22.91;54.07;99552.47;7309985;19;129486;-40
2023/05/14 09:13:48;;;;;;;;;;;;;;;22.93;54.18;99558.38;7309382;19;131827;-42
2023/05/14 09:16:14;;;;;;;;;;;;;;;22.93;54.15;99553.16;7309876;19;130012;-41
2023/05/14 09:18:42;;;;;;;;;;;;;;;22.90;54.35;99542.97;7309919;19;130295;-39
2023/05/14 09:21:07;;;;;;;;;;;;;;;22.92;53.51;99557.56;7305280;19;130838;-41
2023/05/14 09:23:33;;;;;;;;;;;;;;;22.82;54.21;99540.25;7310025;19;129166;-40
2023/05/14 09:26:02;;;;;;;;;;;;;;;22.82;54.01;99535.84;7309168;19;131569;-39
2023/05/14 09:28:29;;;;;;;;;;;;;;;22.91;54.06;99555.09;7308737;19;129385;-40
2023/05/14 09:30:54;;;;;;;;;;;;;;;22.94;53.87;99552.19;7305043;19;129641;-39
2023/05/14 09:33:27;;;;;;;;;;;;;;;22.94;54.35;99554.81;7309617;19;129268;-38
2023/05/14 09:35:54;;;;;;;;;;;;;;;22.91;53.70;99544.59;7311053;19;129482;-40
2023/05/14 09:38:19;;;;;;;;;;;;;;;22.91;53.65;99544.59;7312356;19;129179;-40
2023/05/14 09:40:45;;;;;;;;;;;;;;;22.88;54.28;99531.78;7311279;19;129407;-39
2023/05/14 09:43:10;;;;;;;;;;;;;;;22.89;53.66;99531.63;7313812;19;129998;-39
2023/05/14 09:45:35;;;;;;;;;;;;;;;22.92;53.97;99538.41;7312408;19;129573;-37
2023/05/14 09:48:01;;;;;;;;;;;;;;;22.82;54.13;99514.06;7311250;19;130460;-39
2023/05/14 09:50:26;;;;;;;;;;;;;;;22.91;53.41;99528.88;7310097;19;130132;-39
2023/05/14 09:52:53;;;;;;;;;;;;;;;22.89;53.82;99520.34;7311083;19;130240;-39
2023/05/14 09:55:19;;;;;;;;;;;;;;;22.90;53.51;99514.13;7311658;19;129460;-39
2023/05/14 09:57:44;;;;;;;;;;;;;;;22.89;53.48;99515.91;7309502;19;130098;-38
2023/05/14 10:00:11;;;;;;;;;;;;;;;22.91;53.95;99515.75;7313249;19;129215;-40
2023/05/14 10:02:37;;;;;;;;;;;;;;;22.87;54.17;99509.19;7312183;19;129683;-40
2023/05/14 10:05:05;;;;;;;;;;;;;;;22.86;53.78;99508.34;7309691;19;130286;-40
2023/05/14 10:07:43;;;;;;;;;;;;;;;22.87;54.20;99491.63;7309509;19;129045;-39
2023/05/14 10:10:11;;;;;;;;;;;;;;;22.88;53.34;99497.72;7309078;19;129119;-38
2023/05/14 10:12:39;;;;;;;;;;;;;;;22.90;53.52;99490.53;7308116;19;130259;-39
2023/05/14 10:15:08;;;;;;;;;;;;;;;22.89;53.40;99494.13;7310446;19;129925;-40
2023/05/14 10:17:35;;;;;;;;;;;;;;;22.89;54.22;99491.50;7311022;19;129156;-39
2023/05/14 10:20:01;;;;;;;;;;;;;;;22.89;54.16;99486.28;7306359;19;130168;-40
2023/05/14 10:22:30;;;;;;;;;;;;;;;22.87;53.55;99482.97;7310135;19;129457;-40
2023/05/14 10:24:56;;;;;;;;;;;;;;;22.87;53.62;99491.63;7310978;19;130068;-40
2023/05/14 10:27:21;;;;;;;;;;;;;;;22.88;54.32;99479.38;7311046;19;129943;-39
2023/05/14 10:29:53;;;;;;;;;;;;;;;22.88;53.66;99476.75;7306640;19;130211;-40
2023/05/14 10:32:20;;;;;;;;;;;;;;;22.79;53.42;99461.94;7312189;19;130162;-39
2023/05/14 10:34:45;;;;;;;;;;;;;;;22.88;53.83;99474.13;7305439;19;130761;-40
2023/05/14 10:37:13;;;;;;;;;;;;;;;22.88;53.62;99476.75;7311406;19;129304;-37
2023/05/14 10:39:39;;;;;;;;;;;;;;;22.78;54.35;99450.63;7311909;19;129668;-39
2023/05/14 10:42:05;;;;;;;;;;;;;;;22.86;53.37;99462.97;7310964;19;130039;-39
2023/05/14 10:44:33;;;;;;;;;;;;;;;22.87;54.29;99469.88;7311500;19;129266;-39
2023/05/14 10:46:59;;;;;;;;;;;;;;;22.86;53.74;99463.78;7309044;19;128970;-41
2023/05/14 10:49:25;;;;;;;;;;;;;;;22.88;54.07;99458.38;7304427;19;129260;-38
2023/05/14 10:51:51;;;;;;;;;;;;;;;22.87;54.05;99454.13;7307313;19;130408;-38
2023/05/14 10:54:16;;;;;;;;;;;;;;;22.86;53.73;99457.72;7311275;19;131058;-39
2023/05/14 10:56:44;;;;;;;;;;;;;;;22.85;54.31;99456.06;7308270;19;128938;-39
2023/05/14 10:59:10;;;;;;;;;;;;;;;22.84;54.26;99452.63;7309426;19;129100;-39
2023/05/14 11:01:35;;;;;;;;;;;;;;;22.84;53.54;99460.47;7305199;19;129841;-38
2023/05/14 11:04:01;;;;;;;;;;;;;;;22.84;53.87;99449.19;7310613;19;129673;-39
2023/05/14 11:06:27;;;;;;;;;;;;;;;22.84;54.33;99444.75;7310244;19;129971;-38
2023/05/14 11:08:53;;;;;;;;;;;;;;;22.73;54.22;99426.66;7305261;19;129662;-40
2023/05/14 11:11:18;;;;;;;;;;;;;;;22.87;54.07;99435.78;7303258;19;129692;-40
2023/05/14 11:13:43;;;;;;;;;;;;;;;22.85;53.68;99445.59;7307089;19;130561;-38
2023/05/14 11:16:09;;;;;;;;;;;;;;;22.85;54.03;99437.72;7308588;19;129607;-41
2023/05/14 11:18:39;;;;;;;;;;;;;;;22.83;54.11;99426.56;7306357;19;129122;-41
2023/05/14 11:21:04;;;;;;;;;;;;;;;22.73;54.42;99420.56;7314271;19;132247;-41
2023/05/14 11:23:30;;;;;;;;;;;;;;;22.83;54.25;99423.94;7317403;19;129548;-39
2023/05/14 11:25:55;;;;;;;;;;;;;;;22.74;53.79;99406.53;7314078;19;129229;-40
2023/05/14 11:28:24;;;;;;;;;;;;;;;22.85;53.78;99432.47;7315533;19;129314;-38
2023/05/14 11:30:50;;;;;;;;;;;;;;;22.84;54.43;99428.22;7313554;19;129759;-40
2023/05/14 11:33:15;;;;;;;;;;;;;;;22.83;53.94;99427.41;7317012;19;130991;-40
2023/05/14 11:35:44;;;;;;;;;;;;;;;22.72;54.10;99400.59;7314986;19;129460;-39
2023/05/14 11:38:12;;;;;;;;;;;;;;;22.83;53.86;99426.56;7311653;19;130388;-41
2023/05/14 11:40:38;;;;;;;;;;;;;;;22.83;53.70;99426.56;7314615;19;130383;-38
2023/05/14 11:43:03;;;;;;;;;;;;;;;22.83;53.99;99418.69;7316294;19;129112;-40
2023/05/14 11:45:29;;;;;;;;;;;;;;;22.81;53.65;99411.00;7310542;19;130250;-38
2023/05/14 11:47:54;;;;;;;;;;;;;;;22.81;53.81;99415.41;7313217;19;129537;-38
2023/05/14 11:50:20;;;;;;;;;;;;;;;22.80;54.02;99421.63;7311396;19;129171;-37
2023/05/14 11:52:47;;;;;;;;;;;;;;;22.82;54.08;99410.03;7314075;19;129493;-39
2023/05/14 11:55:12;;;;;;;;;;;;;;;22.68;54.11;99397.44;7312096;19;130748;-39
2023/05/14 11:57:38;;;;;;;;;;;;;;;22.79;54.04;99414.75;7312892;19;130709;-39
2023/05/14 12:00:06;;;;;;;;;;;;;;;22.81;54.49;99412.78;7312556;19;131212;-40
2023/05/14 12:02:31;;;;;;;;;;;;;;;22.81;54.40;99403.13;7311424;19;130574;-40
2023/05/14 12:04:59;;;;;;;;;;;;;;;22.69;53.99;99379.94;7313108;19;130261;-39
2023/05/14 12:07:27;;;;;;;;;;;;;;;22.81;54.38;99397.88;7314347;19;129051;-42
2023/05/14 12:09:52;;;;;;;;;;;;;;;22.82;54.14;99398.72;7313912;19;129596;-39
2023/05/14 12:12:21;;;;;;;;;;;;;;;22.81;54.15;99389.19;7314248;19;130567;-39
2023/05/14 12:14:47;;;;;;;;;;;;;;;22.82;53.81;99386.44;7313644;19;131500;-38
2023/05/14 12:17:18;;;;;;;;;;;;;;;22.71;53.71;99370.13;7314756;19;129547;-38
2023/05/14 12:19:44;;;;;;;;;;;;;;;22.81;54.25;99378.69;7312653;19;129166;-38
2023/05/14 12:22:10;;;;;;;;;;;;;;;22.78;54.04;99382.47;7315671;19;129123;-40
2023/05/14 12:24:36;;;;;;;;;;;;;;;22.81;54.42;99386.56;7311609;19;131091;-38
2023/05/14 12:27:02;;;;;;;;;;;;;;;22.72;53.89;99377.00;7312401;19;130330;-40
2023/05/14 12:29:27;;;;;;;;;;;;;;;22.77;54.35;99380.84;7311535;19;129703;-40
2023/05/14 12:31:52;;;;;;;;;;;;;;;22.77;53.95;99374.75;7304174;19;130464;-41